createdAt,value
2023-03-25T00:00:10.411Z,998.34
2023-03-25T00:01:10.436Z,998.32
2023-03-25T00:02:10.441Z,998.30
2023-03-25T00:03:10.437Z,998.35
2023-03-25T00:04:10.381Z,998.31
2023-03-25T00:05:10.387Z,998.32
2023-03-25T00:06:10.379Z,998.28
2023-03-25T00:07:10.377Z,998.30
2023-03-25T00:08:10.389Z,998.29
2023-03-25T00:09:10.383Z,998.29
2023-03-25T00:10:10.355Z,998.27
2023-03-25T00:11:10.377Z,998.28
2023-03-25T00:12:10.414Z,998.28
2023-03-25T00:13:10.377Z,998.30
2023-03-25T00:14:10.328Z,998.30
2023-03-25T00:15:10.331Z,998.26
2023-03-25T00:16:10.470Z,998.25
2023-03-25T00:17:10.336Z,998.21
2023-03-25T00:18:10.339Z,998.22
2023-03-25T00:19:10.335Z,998.15
2023-03-25T00:20:10.396Z,998.22
2023-03-25T00:21:10.302Z,998.18
2023-03-25T00:22:10.305Z,998.14
2023-03-25T00:23:10.295Z,998.16
2023-03-25T00:24:10.300Z,998.12
2023-03-25T00:25:10.328Z,998.09
2023-03-25T00:26:10.317Z,998.12
2023-03-25T00:27:10.281Z,998.11
2023-03-25T00:28:10.299Z,998.12
2023-03-25T00:29:10.259Z,998.16
2023-03-25T00:30:10.263Z,998.14
2023-03-25T00:31:10.277Z,998.13
2023-03-25T00:32:10.239Z,998.10
2023-03-25T00:33:10.244Z,998.14
2023-03-25T00:34:10.233Z,998.13
2023-03-25T00:35:10.240Z,998.10
2023-03-25T00:36:10.264Z,998.14
2023-03-25T00:37:10.215Z,998.12
2023-03-25T00:38:10.207Z,998.12
2023-03-25T00:39:10.207Z,998.15
2023-03-25T00:40:10.208Z,998.14
2023-03-25T00:41:10.216Z,998.18
2023-03-25T00:42:10.215Z,998.21
2023-03-25T00:43:10.203Z,998.18
2023-03-25T00:44:10.214Z,998.21
2023-03-25T00:45:10.179Z,998.25
2023-03-25T00:46:10.189Z,998.28
2023-03-25T00:47:10.190Z,998.24
2023-03-25T00:48:10.181Z,998.22
2023-03-25T00:49:10.155Z,998.22
2023-03-25T00:50:10.158Z,998.22
2023-03-25T00:51:10.403Z,998.27
2023-03-25T00:52:10.142Z,998.24
2023-03-25T00:53:10.141Z,998.24
2023-03-25T00:54:10.124Z,998.24
2023-03-25T00:55:10.133Z,998.29
2023-03-25T00:56:10.110Z,998.28
2023-03-25T00:57:10.147Z,998.27
2023-03-25T00:58:10.107Z,998.31
2023-03-25T00:59:10.109Z,998.30
2023-03-25T01:00:10.149Z,998.30
2023-03-25T01:01:10.188Z,998.31
2023-03-25T01:02:10.085Z,998.33
2023-03-25T01:03:10.200Z,998.34
2023-03-25T01:04:10.093Z,998.30
2023-03-25T01:05:10.078Z,998.30
2023-03-25T01:06:10.071Z,998.28
2023-03-25T01:07:10.196Z,998.32
2023-03-25T01:08:10.060Z,998.31
2023-03-25T01:09:10.058Z,998.33
2023-03-25T01:10:10.083Z,998.32
2023-03-25T01:11:10.034Z,998.32
2023-03-25T01:12:10.070Z,998.27
2023-03-25T01:13:10.026Z,998.30
2023-03-25T01:14:10.030Z,998.26
2023-03-25T01:15:10.026Z,998.31
2023-03-25T01:16:10.031Z,998.30
2023-03-25T01:17:10.031Z,998.28
2023-03-25T01:18:10.011Z,998.23
2023-03-25T01:19:10.054Z,998.24
2023-03-25T01:20:10.068Z,998.26
2023-03-25T01:21:09.997Z,998.25
2023-03-25T01:22:09.980Z,998.20
2023-03-25T01:23:09.992Z,998.19
2023-03-25T01:24:09.999Z,998.10
2023-03-25T01:25:09.978Z,998.14
2023-03-25T01:26:09.980Z,998.12
2023-03-25T01:27:09.953Z,998.08
2023-03-25T01:28:09.944Z,998.10
2023-03-25T01:29:09.952Z,998.06
2023-03-25T01:30:09.937Z,998.04
2023-03-25T01:31:09.974Z,998.05
2023-03-25T01:32:09.933Z,998.04
2023-03-25T01:33:10.031Z,998.02
2023-03-25T01:34:09.917Z,997.97
2023-03-25T01:35:09.912Z,997.94
2023-03-25T01:36:10.007Z,997.92
2023-03-25T01:37:09.915Z,997.93
2023-03-25T01:38:09.900Z,997.94
2023-03-25T01:39:09.920Z,997.92
2023-03-25T01:40:09.905Z,997.87
2023-03-25T01:41:09.896Z,997.92
2023-03-25T01:42:09.889Z,997.85
2023-03-25T01:43:09.890Z,997.85
2023-03-25T01:44:09.902Z,997.81
2023-03-25T01:45:09.856Z,997.82
2023-03-25T01:46:09.883Z,997.79
2023-03-25T01:47:09.846Z,997.78
2023-03-25T01:48:09.848Z,997.80
2023-03-25T01:49:09.844Z,997.78
2023-03-25T01:50:09.837Z,997.79
2023-03-25T01:51:09.825Z,997.85
2023-03-25T01:52:09.814Z,997.78
2023-03-25T01:53:09.831Z,997.79
2023-03-25T01:54:09.842Z,997.83
2023-03-25T01:55:09.815Z,997.84
2023-03-25T01:56:09.807Z,997.81
2023-03-25T01:57:09.894Z,997.83
2023-03-25T01:58:09.808Z,997.83
2023-03-25T01:59:09.812Z,997.81
2023-03-25T02:00:09.776Z,997.81
2023-03-25T02:01:09.787Z,997.80
2023-03-25T02:02:09.791Z,997.80
2023-03-25T02:03:09.790Z,997.81
2023-03-25T02:04:09.768Z,997.80
2023-03-25T02:05:09.748Z,997.73
2023-03-25T02:06:09.761Z,997.74
2023-03-25T02:07:09.735Z,997.72
2023-03-25T02:08:09.778Z,997.73
2023-03-25T02:09:09.732Z,997.72
2023-03-25T02:10:09.762Z,997.67
2023-03-25T02:11:09.723Z,997.64
2023-03-25T02:12:09.717Z,997.63
2023-03-25T02:13:09.722Z,997.58
2023-03-25T02:14:09.713Z,997.58
2023-03-25T02:15:09.704Z,997.56
2023-03-25T02:16:09.718Z,997.57
2023-03-25T02:17:09.682Z,997.56
2023-03-25T02:18:09.685Z,997.57
2023-03-25T02:19:09.674Z,997.58
2023-03-25T02:20:09.685Z,997.58
2023-03-25T02:21:09.675Z,997.54
2023-03-25T02:22:09.669Z,997.54
2023-03-25T02:23:09.659Z,997.55
2023-03-25T02:24:09.651Z,997.52
2023-03-25T02:25:09.635Z,997.50
2023-03-25T02:26:09.649Z,997.52
2023-03-25T02:27:09.633Z,997.53
2023-03-25T02:28:09.629Z,997.49
2023-03-25T02:29:09.623Z,997.51
2023-03-25T02:30:09.641Z,997.46
2023-03-25T02:31:09.621Z,997.48
2023-03-25T02:32:09.681Z,997.40
2023-03-25T02:33:09.633Z,997.45
2023-03-25T02:34:09.590Z,997.41
2023-03-25T02:35:09.598Z,997.40
2023-03-25T02:36:09.626Z,997.35
2023-03-25T02:37:09.575Z,997.35
2023-03-25T02:38:09.589Z,997.37
2023-03-25T02:39:09.588Z,997.31
2023-03-25T02:40:09.556Z,997.30
2023-03-25T02:41:09.555Z,997.33
2023-03-25T02:42:09.558Z,997.30
2023-03-25T02:43:09.545Z,997.24
2023-03-25T02:44:09.552Z,997.22
2023-03-25T02:45:09.532Z,997.18
2023-03-25T02:46:09.544Z,997.18
2023-03-25T02:47:09.542Z,997.23
2023-03-25T02:48:09.550Z,997.20
2023-03-25T02:49:09.522Z,997.21
2023-03-25T02:50:09.506Z,997.21
2023-03-25T02:51:09.512Z,997.17
2023-03-25T02:52:09.497Z,997.22
2023-03-25T02:53:09.504Z,997.19
2023-03-25T02:54:09.520Z,997.18
2023-03-25T02:55:09.495Z,997.13
2023-03-25T02:56:09.493Z,997.14
2023-03-25T02:57:09.665Z,997.13
2023-03-25T02:58:09.465Z,997.17
2023-03-25T02:59:09.464Z,997.13
2023-03-25T03:00:09.495Z,997.16
2023-03-25T03:01:09.464Z,997.16
2023-03-25T03:02:09.489Z,997.15
2023-03-25T03:03:09.520Z,997.18
2023-03-25T03:04:09.448Z,997.15
2023-03-25T03:05:09.439Z,997.14
2023-03-25T03:06:09.433Z,997.15
2023-03-25T03:07:09.426Z,997.13
2023-03-25T03:08:09.427Z,997.17
2023-03-25T03:09:09.405Z,997.18
2023-03-25T03:10:09.418Z,997.12
2023-03-25T03:11:09.411Z,997.06
2023-03-25T03:12:09.409Z,997.10
2023-03-25T03:13:09.399Z,997.12
2023-03-25T03:14:09.396Z,997.14
2023-03-25T03:15:09.378Z,997.17
2023-03-25T03:16:09.365Z,997.12
2023-03-25T03:17:09.497Z,997.13
2023-03-25T03:18:09.469Z,997.15
2023-03-25T03:19:09.379Z,997.18
2023-03-25T03:20:09.368Z,997.18
2023-03-25T03:21:09.405Z,997.21
2023-03-25T03:22:09.341Z,997.15
2023-03-25T03:23:09.326Z,997.22
2023-03-25T03:24:09.335Z,997.23
2023-03-25T03:25:09.329Z,997.23
2023-03-25T03:26:09.348Z,997.23
2023-03-25T03:27:09.317Z,997.27
2023-03-25T03:28:09.324Z,997.30
2023-03-25T03:29:09.313Z,997.23
2023-03-25T03:30:09.332Z,997.27
2023-03-25T03:31:09.349Z,997.30
2023-03-25T03:32:09.310Z,997.32
2023-03-25T03:33:09.357Z,997.32
2023-03-25T03:34:09.282Z,997.32
2023-03-25T03:35:09.269Z,997.34
2023-03-25T03:36:09.264Z,997.35
2023-03-25T03:37:09.263Z,997.33
2023-03-25T03:38:09.276Z,997.38
2023-03-25T03:39:09.254Z,997.35
2023-03-25T03:40:09.254Z,997.39
2023-03-25T03:41:09.242Z,997.37
2023-03-25T03:42:09.236Z,997.37
2023-03-25T03:43:09.243Z,997.35
2023-03-25T03:44:09.232Z,997.36
2023-03-25T03:45:09.213Z,997.36
2023-03-25T03:46:09.239Z,997.35
2023-03-25T03:47:09.214Z,997.40
2023-03-25T03:48:09.232Z,997.34
2023-03-25T03:49:09.212Z,997.37
2023-03-25T03:50:09.208Z,997.37
2023-03-25T03:51:09.184Z,997.37
2023-03-25T03:52:09.216Z,997.32
2023-03-25T03:53:09.177Z,997.38
2023-03-25T03:54:09.179Z,997.34
2023-03-25T03:55:09.161Z,997.34
2023-03-25T03:56:09.185Z,997.30
2023-03-25T03:57:09.234Z,997.36
2023-03-25T03:58:09.144Z,997.29
2023-03-25T03:59:09.158Z,997.24
2023-03-25T04:00:09.150Z,997.20
2023-03-25T04:01:09.138Z,997.21
2023-03-25T04:02:09.234Z,997.19
2023-03-25T04:03:09.216Z,997.22
2023-03-25T04:04:09.181Z,997.21
2023-03-25T04:05:09.125Z,997.23
2023-03-25T04:06:09.123Z,997.21
2023-03-25T04:07:09.101Z,997.20
2023-03-25T04:08:09.107Z,997.22
2023-03-25T04:09:09.091Z,997.24
2023-03-25T04:10:09.098Z,997.28
2023-03-25T04:11:09.072Z,997.21
2023-03-25T04:12:09.067Z,997.25
2023-03-25T04:13:09.096Z,997.24
2023-03-25T04:14:09.070Z,997.20
2023-03-25T04:15:09.056Z,997.18
2023-03-25T04:16:09.106Z,997.27
2023-03-25T04:17:09.042Z,997.26
2023-03-25T04:18:09.059Z,997.29
2023-03-25T04:19:09.032Z,997.26
2023-03-25T04:20:09.069Z,997.23
2023-03-25T04:21:09.023Z,997.20
2023-03-25T04:22:09.033Z,997.23
2023-03-25T04:23:09.003Z,997.26
2023-03-25T04:24:09.018Z,997.24
2023-03-25T04:25:09.013Z,997.26
2023-03-25T04:26:08.994Z,997.27
2023-03-25T04:27:08.991Z,997.22
2023-03-25T04:28:08.982Z,997.24
2023-03-25T04:29:08.976Z,997.25
2023-03-25T04:30:09.015Z,997.25
2023-03-25T04:31:08.986Z,997.30
2023-03-25T04:32:08.973Z,997.27
2023-03-25T04:33:08.975Z,997.22
2023-03-25T04:34:08.957Z,997.23
2023-03-25T04:35:08.941Z,997.26
2023-03-25T04:36:08.971Z,997.25
2023-03-25T04:37:08.950Z,997.25
2023-03-25T04:38:08.931Z,997.30
2023-03-25T04:39:08.915Z,997.31
2023-03-25T04:40:08.910Z,997.27
2023-03-25T04:41:08.949Z,997.31
2023-03-25T04:42:08.911Z,997.38
2023-03-25T04:43:08.920Z,997.40
2023-03-25T04:44:08.906Z,997.33
2023-03-25T04:45:08.882Z,997.36
2023-03-25T04:46:08.965Z,997.32
2023-03-25T04:47:08.889Z,997.28
2023-03-25T04:48:08.876Z,997.32
2023-03-25T04:49:08.877Z,997.31
2023-03-25T04:50:08.879Z,997.25
2023-03-25T04:51:08.891Z,997.23
2023-03-25T04:52:08.850Z,997.26
2023-03-25T04:53:08.859Z,997.20
2023-03-25T04:54:08.894Z,997.23
2023-03-25T04:55:08.837Z,997.18
2023-03-25T04:56:08.828Z,997.17
2023-03-25T04:57:08.854Z,997.17
2023-03-25T04:58:08.827Z,997.15
2023-03-25T04:59:08.813Z,997.19
2023-03-25T05:00:08.817Z,997.20
2023-03-25T05:01:08.829Z,997.20
2023-03-25T05:02:08.799Z,997.22
2023-03-25T05:03:08.789Z,997.26
2023-03-25T05:04:08.791Z,997.27
2023-03-25T05:05:08.778Z,997.30
2023-03-25T05:06:08.797Z,997.24
2023-03-25T05:07:08.783Z,997.25
2023-03-25T05:08:08.758Z,997.28
2023-03-25T05:09:08.748Z,997.23
2023-03-25T05:10:08.759Z,997.29
2023-03-25T05:11:08.744Z,997.22
2023-03-25T05:12:08.740Z,997.20
2023-03-25T05:13:08.725Z,997.22
2023-03-25T05:14:08.728Z,997.24
2023-03-25T05:15:08.722Z,997.24
2023-03-25T05:16:08.735Z,997.26
2023-03-25T05:17:08.750Z,997.21
2023-03-25T05:18:08.696Z,997.21
2023-03-25T05:19:08.698Z,997.18
2023-03-25T05:20:08.689Z,997.20
2023-03-25T05:21:08.694Z,997.20
2023-03-25T05:22:08.688Z,997.18
2023-03-25T05:23:08.674Z,997.18
2023-03-25T05:24:08.667Z,997.21
2023-03-25T05:25:08.658Z,997.19
2023-03-25T05:26:08.665Z,997.22
2023-03-25T05:27:08.650Z,997.17
2023-03-25T05:28:08.639Z,997.18
2023-03-25T05:29:08.736Z,997.19
2023-03-25T05:30:08.776Z,997.18
2023-03-25T05:31:08.651Z,997.14
2023-03-25T05:32:08.689Z,997.15
2023-03-25T05:33:08.645Z,997.21
2023-03-25T05:34:08.639Z,997.19
2023-03-25T05:35:08.617Z,997.20
2023-03-25T05:36:08.710Z,997.19
2023-03-25T05:37:08.610Z,997.17
2023-03-25T05:38:08.588Z,997.19
2023-03-25T05:39:08.630Z,997.21
2023-03-25T05:40:15.074Z,997.21
2023-03-25T05:41:08.592Z,997.21
2023-03-25T05:42:08.587Z,997.25
2023-03-25T05:43:08.573Z,997.23
2023-03-25T05:44:08.584Z,997.26
2023-03-25T05:45:08.545Z,997.27
2023-03-25T05:46:08.646Z,997.32
2023-03-25T05:47:08.540Z,997.27
2023-03-25T05:48:08.599Z,997.32
2023-03-25T05:49:08.533Z,997.25
2023-03-25T05:50:08.611Z,997.26
2023-03-25T05:51:08.510Z,997.32
2023-03-25T05:52:08.510Z,997.33
2023-03-25T05:53:08.498Z,997.33
2023-03-25T05:54:08.523Z,997.34
2023-03-25T05:55:08.500Z,997.36
2023-03-25T05:56:08.493Z,997.39
2023-03-25T05:57:08.593Z,997.40
2023-03-25T05:58:08.491Z,997.41
2023-03-25T05:59:08.555Z,997.43
2023-03-25T06:00:08.502Z,997.44
2023-03-25T06:01:17.039Z,997.40
2023-03-25T06:02:08.536Z,997.43
2023-03-25T06:03:08.852Z,997.43
2023-03-25T06:04:08.533Z,997.52
2023-03-25T06:05:08.440Z,997.47
2023-03-25T06:06:08.439Z,997.42
2023-03-25T06:07:08.432Z,997.47
2023-03-25T06:08:08.482Z,997.48
2023-03-25T06:09:08.418Z,997.48
2023-03-25T06:10:08.419Z,997.52
2023-03-25T06:11:08.410Z,997.52
2023-03-25T06:12:08.426Z,997.50
2023-03-25T06:13:08.433Z,997.51
2023-03-25T06:14:08.394Z,997.53
2023-03-25T06:15:08.388Z,997.50
2023-03-25T06:16:08.422Z,997.49
2023-03-25T06:17:08.384Z,997.50
2023-03-25T06:18:08.414Z,997.54
2023-03-25T06:19:08.367Z,997.48
2023-03-25T06:20:08.397Z,997.53
2023-03-25T06:21:08.369Z,997.55
2023-03-25T06:22:08.357Z,997.52
2023-03-25T06:23:08.340Z,997.56
2023-03-25T06:24:08.342Z,997.60
2023-03-25T06:25:08.342Z,997.58
2023-03-25T06:26:08.350Z,997.63
2023-03-25T06:27:08.332Z,997.65
2023-03-25T06:28:08.324Z,997.66
2023-03-25T06:29:08.313Z,997.65
2023-03-25T06:30:08.313Z,997.64
2023-03-25T06:31:08.351Z,997.65
2023-03-25T06:32:08.300Z,997.65
2023-03-25T06:33:08.289Z,997.68
2023-03-25T06:34:08.351Z,997.65
2023-03-25T06:35:08.322Z,997.70
2023-03-25T06:36:08.346Z,997.65
2023-03-25T06:37:08.286Z,997.68
2023-03-25T06:38:08.479Z,997.65
2023-03-25T06:39:08.288Z,997.70
2023-03-25T06:40:08.324Z,997.68
2023-03-25T06:41:08.273Z,997.65
2023-03-25T06:42:08.249Z,997.64
2023-03-25T06:43:08.241Z,997.66
2023-03-25T06:44:08.253Z,997.67
2023-03-25T06:45:08.251Z,997.65
2023-03-25T06:46:08.293Z,997.65
2023-03-25T06:47:08.222Z,997.61
2023-03-25T06:48:08.210Z,997.62
2023-03-25T06:49:08.203Z,997.63
2023-03-25T06:50:08.206Z,997.62
2023-03-25T06:51:08.198Z,997.62
2023-03-25T06:52:08.207Z,997.61
2023-03-25T06:53:08.232Z,997.58
2023-03-25T06:54:08.186Z,997.56
2023-03-25T06:55:08.193Z,997.57
2023-03-25T06:56:08.186Z,997.57
2023-03-25T06:57:08.216Z,997.51
2023-03-25T06:58:08.238Z,997.52
2023-03-25T06:59:08.155Z,997.57
2023-03-25T07:00:08.189Z,997.54
2023-03-25T07:01:08.189Z,997.54
2023-03-25T07:02:08.194Z,997.55
2023-03-25T07:03:08.207Z,997.57
2023-03-25T07:04:08.174Z,997.61
2023-03-25T07:05:08.208Z,997.64
2023-03-25T07:06:08.160Z,997.59
2023-03-25T07:07:08.134Z,997.65
2023-03-25T07:08:08.130Z,997.68
2023-03-25T07:09:08.121Z,997.68
2023-03-25T07:10:08.105Z,997.73
2023-03-25T07:11:08.177Z,997.78
2023-03-25T07:12:09.176Z,997.70
2023-03-25T07:13:08.104Z,997.75
2023-03-25T07:14:08.096Z,997.84
2023-03-25T07:15:08.136Z,997.78
2023-03-25T07:16:08.213Z,997.84
2023-03-25T07:17:08.086Z,997.89
2023-03-25T07:18:08.174Z,997.87
2023-03-25T07:19:08.109Z,997.85
2023-03-25T07:20:09.591Z,997.91
2023-03-25T07:21:08.088Z,997.87
2023-03-25T07:22:08.093Z,997.93
2023-03-25T07:23:08.097Z,997.92
2023-03-25T07:24:08.121Z,997.91
2023-03-25T07:25:08.093Z,997.89
2023-03-25T07:26:08.145Z,997.88
2023-03-25T07:27:08.103Z,997.86
2023-03-25T07:28:08.112Z,997.89
2023-03-25T07:29:08.128Z,997.85
2023-03-25T07:30:08.144Z,998.02
2023-03-25T07:31:08.234Z,997.99
2023-03-25T07:32:08.112Z,998.04
2023-03-25T07:33:08.112Z,998.05
2023-03-25T07:34:08.144Z,997.96
2023-03-25T07:35:08.169Z,998.04
2023-03-25T07:36:08.179Z,998.04
2023-03-25T07:37:08.149Z,998.07
2023-03-25T07:38:08.135Z,998.15
2023-03-25T07:39:08.130Z,998.10
2023-03-25T07:40:08.141Z,998.09
2023-03-25T07:41:08.145Z,998.15
2023-03-25T07:42:08.180Z,998.10
2023-03-25T07:43:08.166Z,998.18
2023-03-25T07:44:08.167Z,998.17
2023-03-25T07:45:08.168Z,998.22
2023-03-25T07:46:08.203Z,998.19
2023-03-25T07:47:08.192Z,998.07
2023-03-25T07:48:08.211Z,998.03
2023-03-25T07:49:08.213Z,998.08
2023-03-25T07:50:08.209Z,998.07
2023-03-25T07:51:08.211Z,998.18
2023-03-25T07:52:08.212Z,998.03
2023-03-25T07:53:08.262Z,998.11
2023-03-25T07:54:08.229Z,998.06
2023-03-25T07:55:08.235Z,998.05
2023-03-25T07:56:08.246Z,998.09
2023-03-25T07:57:08.325Z,998.00
2023-03-25T07:58:08.259Z,998.09
2023-03-25T07:59:08.259Z,998.04
2023-03-25T08:00:08.312Z,998.05
2023-03-25T08:01:08.276Z,998.06
2023-03-25T08:02:08.328Z,997.98
2023-03-25T08:03:08.346Z,997.99
2023-03-25T08:04:08.344Z,998.02
2023-03-25T08:05:08.291Z,997.95
2023-03-25T08:06:08.291Z,997.95
2023-03-25T08:07:08.280Z,997.91
2023-03-25T08:08:08.283Z,997.98
2023-03-25T08:09:08.321Z,997.96
2023-03-25T08:10:08.302Z,998.00
2023-03-25T08:11:08.351Z,998.01
2023-03-25T08:12:08.273Z,998.01
2023-03-25T08:13:08.302Z,997.97
2023-03-25T08:14:08.278Z,998.01
2023-03-25T08:15:08.302Z,998.10
2023-03-25T08:16:08.301Z,998.10
2023-03-25T08:17:08.276Z,998.00
2023-03-25T08:18:08.313Z,997.93
2023-03-25T08:19:08.347Z,997.99
2023-03-25T08:20:08.310Z,997.94
2023-03-25T08:21:08.272Z,997.85
2023-03-25T08:22:08.314Z,997.94
2023-03-25T08:23:08.285Z,997.96
2023-03-25T08:24:08.290Z,997.98
2023-03-25T08:25:08.306Z,997.94
2023-03-25T08:26:08.290Z,998.01
2023-03-25T08:27:14.859Z,997.97
2023-03-25T08:28:08.344Z,997.97
2023-03-25T08:29:08.279Z,998.05
2023-03-25T08:30:08.313Z,997.99
2023-03-25T08:31:08.337Z,997.94
2023-03-25T08:32:08.310Z,998.06
2023-03-25T08:33:08.288Z,998.05
2023-03-25T08:34:08.309Z,997.96
2023-03-25T08:35:08.320Z,997.99
2023-03-25T08:36:08.365Z,997.93
2023-03-25T08:37:08.325Z,997.96
2023-03-25T08:38:08.312Z,997.91
2023-03-25T08:39:08.330Z,997.91
2023-03-25T08:40:08.336Z,997.94
2023-03-25T08:41:08.352Z,998.00
2023-03-25T08:42:08.290Z,997.86
2023-03-25T08:43:08.303Z,997.88
2023-03-25T08:44:08.346Z,997.90
2023-03-25T08:45:08.303Z,997.95
2023-03-25T08:46:08.315Z,997.87
2023-03-25T08:47:08.305Z,997.86
2023-03-25T08:48:08.342Z,997.86
2023-03-25T08:49:08.303Z,997.84
2023-03-25T08:50:08.316Z,997.92
2023-03-25T08:51:08.314Z,997.86
2023-03-25T08:52:08.281Z,997.82
2023-03-25T08:53:08.307Z,997.87
2023-03-25T08:54:08.275Z,997.84
2023-03-25T08:55:10.373Z,997.76
2023-03-25T08:56:08.281Z,997.85
2023-03-25T08:57:08.345Z,997.81
2023-03-25T08:58:08.282Z,997.83
2023-03-25T08:59:08.291Z,997.93
2023-03-25T09:00:08.269Z,997.93
2023-03-25T09:01:08.289Z,997.81
2023-03-25T09:02:08.293Z,997.81
2023-03-25T09:03:08.311Z,997.84
2023-03-25T09:04:08.281Z,997.82
2023-03-25T09:05:08.349Z,997.85
2023-03-25T09:06:08.251Z,997.91
2023-03-25T09:07:11.884Z,997.86
2023-03-25T09:08:08.246Z,997.81
2023-03-25T09:09:08.244Z,997.91
2023-03-25T09:10:08.280Z,997.89
2023-03-25T09:11:08.256Z,997.88
2023-03-25T09:12:08.250Z,997.91
2023-03-25T09:13:08.248Z,997.85
2023-03-25T09:14:08.246Z,997.91
2023-03-25T09:15:08.254Z,997.86
2023-03-25T09:16:08.276Z,997.87
2023-03-25T09:17:08.227Z,997.87
2023-03-25T09:18:08.248Z,997.89
2023-03-25T09:19:08.238Z,997.80
2023-03-25T09:20:08.221Z,997.84
2023-03-25T09:21:08.226Z,997.87
2023-03-25T09:22:08.264Z,997.82
2023-03-25T09:23:08.205Z,997.88
2023-03-25T09:24:08.233Z,997.91
2023-03-25T09:25:08.209Z,997.88
2023-03-25T09:26:08.188Z,997.87
2023-03-25T09:27:08.188Z,997.83
2023-03-25T09:28:08.217Z,997.86
2023-03-25T09:29:08.207Z,997.92
2023-03-25T09:30:08.178Z,997.86
2023-03-25T09:31:08.232Z,997.79
2023-03-25T09:32:08.169Z,997.87
2023-03-25T09:33:08.198Z,997.91
2023-03-25T09:34:08.213Z,997.93
2023-03-25T09:35:08.178Z,997.94
2023-03-25T09:36:29.187Z,997.94
2023-03-25T09:37:08.162Z,997.95
2023-03-25T09:38:08.175Z,997.91
2023-03-25T09:39:08.169Z,997.94
2023-03-25T09:40:08.193Z,997.93
2023-03-25T09:41:09.017Z,997.94
2023-03-25T09:42:08.164Z,997.93
2023-03-25T09:43:08.148Z,997.94
2023-03-25T09:44:08.148Z,998.00
2023-03-25T09:45:11.926Z,998.00
2023-03-25T09:46:08.195Z,997.93
2023-03-25T09:47:08.150Z,997.94
2023-03-25T09:48:08.246Z,997.97
2023-03-25T09:49:08.121Z,998.01
2023-03-25T09:50:08.110Z,997.98
2023-03-25T09:52:20.343Z,997.95
2023-03-25T09:53:20.296Z,997.90
2023-03-25T09:54:20.311Z,997.93
2023-03-25T09:55:20.283Z,997.96
2023-03-25T09:56:20.296Z,997.93
2023-03-25T09:57:20.400Z,997.91
2023-03-25T09:58:20.283Z,997.93
2023-03-25T09:59:20.274Z,997.94
2023-03-25T10:00:20.279Z,997.94
2023-03-25T10:01:20.296Z,998.06
2023-03-25T10:02:20.341Z,997.90
2023-03-25T10:03:20.341Z,997.95
2023-03-25T10:04:20.259Z,997.91
2023-03-25T10:05:20.259Z,997.84
2023-03-25T10:06:20.280Z,997.87
2023-03-25T10:07:20.253Z,997.86
2023-03-25T10:08:20.247Z,997.88
2023-03-25T10:09:20.248Z,997.93
2023-03-25T10:10:20.252Z,997.90
2023-03-25T10:11:20.243Z,997.85
2023-03-25T10:12:20.264Z,997.83
2023-03-25T10:13:20.317Z,997.84
2023-03-25T10:14:20.243Z,997.84
2023-03-25T10:15:20.242Z,997.84
2023-03-25T10:16:20.278Z,997.85
2023-03-25T10:17:20.257Z,997.84
2023-03-25T10:18:20.234Z,997.78
2023-03-25T10:19:20.224Z,997.76
2023-03-25T10:20:20.229Z,997.78
2023-03-25T10:21:20.219Z,997.81
2023-03-25T10:22:20.218Z,997.90
2023-03-25T10:23:20.210Z,997.84
2023-03-25T10:24:20.208Z,997.73
2023-03-25T10:25:20.208Z,997.77
2023-03-25T10:26:20.206Z,997.86
2023-03-25T10:27:20.205Z,997.76
2023-03-25T10:28:20.194Z,997.77
2023-03-25T10:29:20.405Z,997.72
2023-03-25T10:30:20.194Z,997.76
2023-03-25T10:31:20.290Z,997.78
2023-03-25T10:32:20.189Z,997.75
2023-03-25T10:33:20.190Z,997.74
2023-03-25T10:34:20.183Z,997.71
2023-03-25T10:35:20.214Z,997.78
2023-03-25T10:36:20.185Z,997.76
2023-03-25T10:37:20.177Z,997.76
2023-03-25T10:38:20.177Z,997.77
2023-03-25T10:39:20.177Z,997.91
2023-03-25T10:40:21.694Z,997.80
2023-03-25T10:41:20.171Z,997.78
2023-03-25T10:42:20.167Z,997.74
2023-03-25T10:43:20.178Z,997.75
2023-03-25T10:44:20.165Z,997.76
2023-03-25T10:45:20.168Z,997.73
2023-03-25T10:46:20.178Z,997.80
2023-03-25T10:47:20.155Z,997.84
2023-03-25T10:48:20.144Z,997.79
2023-03-25T10:49:20.177Z,997.77
2023-03-25T10:50:20.215Z,997.72
2023-03-25T10:51:20.143Z,997.77
2023-03-25T10:52:20.143Z,997.75
2023-03-25T10:53:20.150Z,997.76
2023-03-25T10:54:20.140Z,997.72
2023-03-25T10:55:20.137Z,997.75
2023-03-25T10:56:20.129Z,997.73
2023-03-25T10:57:20.137Z,997.76
2023-03-25T10:58:20.132Z,997.73
2023-03-25T10:59:20.134Z,997.67
2023-03-25T11:00:20.219Z,997.61
2023-03-25T11:01:20.153Z,997.68
2023-03-25T11:02:20.255Z,997.68
2023-03-25T11:03:20.141Z,997.69
2023-03-25T11:04:20.157Z,997.60
2023-03-25T11:05:20.102Z,997.57
2023-03-25T11:06:20.093Z,997.59
2023-03-25T11:07:20.107Z,997.55
2023-03-25T11:08:24.896Z,997.58
2023-03-25T11:09:20.104Z,997.51
2023-03-25T11:10:20.121Z,997.59
2023-03-25T11:11:20.085Z,997.57
2023-03-25T11:12:25.132Z,997.64
2023-03-25T11:13:20.134Z,997.58
2023-03-25T11:14:20.079Z,997.62
2023-03-25T11:15:20.120Z,997.57
2023-03-25T11:16:20.132Z,997.59
2023-03-25T11:17:20.072Z,997.55
2023-03-25T11:18:20.078Z,997.54
2023-03-25T11:19:20.071Z,997.53
2023-03-25T11:20:20.120Z,997.60
2023-03-25T11:21:20.075Z,997.60
2023-03-25T11:22:20.064Z,997.52
2023-03-25T11:23:20.060Z,997.41
2023-03-25T11:24:20.056Z,997.44
2023-03-25T11:25:20.052Z,997.35
2023-03-25T11:26:20.081Z,997.49
2023-03-25T11:27:20.047Z,997.49
2023-03-25T11:28:20.039Z,997.49
2023-03-25T11:29:20.047Z,997.51
2023-03-25T11:30:20.081Z,997.48
2023-03-25T11:31:20.157Z,997.45
2023-03-25T11:32:20.044Z,997.47
2023-03-25T11:33:20.033Z,997.42
2023-03-25T11:34:20.052Z,997.37
2023-03-25T11:35:20.031Z,997.35
2023-03-25T11:36:20.034Z,997.40
2023-03-25T11:37:20.019Z,997.37
2023-03-25T11:38:20.054Z,997.37
2023-03-25T11:39:20.032Z,997.35
2023-03-25T11:40:20.035Z,997.34
2023-03-25T11:41:20.024Z,997.35
2023-03-25T11:42:20.024Z,997.39
2023-03-25T11:43:20.037Z,997.42
2023-03-25T11:44:20.036Z,997.36
2023-03-25T11:45:20.008Z,997.43
2023-03-25T11:46:20.118Z,997.48
2023-03-25T11:47:20.011Z,997.58
2023-03-25T11:48:19.983Z,997.66
2023-03-25T11:49:20.069Z,997.49
2023-03-25T11:50:19.978Z,997.44
2023-03-25T11:51:19.991Z,997.50
2023-03-25T11:52:19.992Z,997.47
2023-03-25T11:53:20.018Z,997.51
2023-03-25T11:54:20.002Z,997.54
2023-03-25T11:55:19.976Z,997.45
2023-03-25T11:56:19.969Z,997.48
2023-03-25T11:57:19.971Z,997.47
2023-03-25T11:58:19.958Z,997.42
2023-03-25T11:59:19.967Z,997.37
2023-03-25T12:00:19.966Z,997.35
2023-03-25T12:01:19.972Z,997.34
2023-03-25T12:02:19.979Z,997.27
2023-03-25T12:03:20.866Z,997.25
2023-03-25T12:04:19.951Z,997.23
2023-03-25T12:05:19.946Z,997.25
2023-03-25T12:06:19.971Z,997.26
2023-03-25T12:07:19.943Z,997.24
2023-03-25T12:08:19.944Z,997.22
2023-03-25T12:09:19.932Z,997.22
2023-03-25T12:10:19.936Z,997.20
2023-03-25T12:11:19.926Z,997.18
2023-03-25T12:12:19.916Z,997.19
2023-03-25T12:13:19.934Z,997.15
2023-03-25T12:14:19.931Z,997.16
2023-03-25T12:15:19.917Z,997.12
2023-03-25T12:16:19.947Z,997.14
2023-03-25T12:17:19.936Z,997.19
2023-03-25T12:18:19.899Z,997.17
2023-03-25T12:19:19.901Z,997.17
2023-03-25T12:20:19.904Z,997.10
2023-03-25T12:21:19.899Z,997.17
2023-03-25T12:22:19.904Z,997.17
2023-03-25T12:23:19.943Z,997.26
2023-03-25T12:24:19.910Z,997.14
2023-03-25T12:25:19.910Z,997.14
2023-03-25T12:26:19.882Z,997.06
2023-03-25T12:27:19.891Z,997.13
2023-03-25T12:28:19.895Z,997.07
2023-03-25T12:29:19.903Z,997.08